sensor_id;sensor_type;location;lat;lon;timestamp;P1;durP1;ratioP1;P2;durP2;ratioP2
35056;SDS011;21241;51.828;19.574;2023-05-21T00:00:31;8.80;;;8.00;;
35056;SDS011;21241;51.828;19.574;2023-05-21T00:03:18;8.30;;;7.70;;
35056;SDS011;21241;51.828;19.574;2023-05-21T00:05:47;8.90;;;8.20;;
35056;SDS011;21241;51.828;19.574;2023-05-21T00:08:16;9.30;;;8.60;;
35056;SDS011;21241;51.828;19.574;2023-05-21T00:10:44;8.60;;;7.80;;
35056;SDS011;21241;51.828;19.574;2023-05-21T00:13:12;8.90;;;8.20;;
35056;SDS011;21241;51.828;19.574;2023-05-21T00:15:40;8.90;;;8.20;;
35056;SDS011;21241;51.828;19.574;2023-05-21T00:18:08;10.10;;;8.30;;
35056;SDS011;21241;51.828;19.574;2023-05-21T00:20:36;8.90;;;8.10;;
35056;SDS011;21241;51.828;19.574;2023-05-21T00:23:03;8.70;;;7.90;;
35056;SDS011;21241;51.828;19.574;2023-05-21T00:25:31;9.00;;;8.30;;
35056;SDS011;21241;51.828;19.574;2023-05-21T00:27:59;8.60;;;7.90;;
35056;SDS011;21241;51.828;19.574;2023-05-21T00:30:27;8.60;;;8.00;;
35056;SDS011;21241;51.828;19.574;2023-05-21T00:32:55;8.20;;;7.60;;
35056;SDS011;21241;51.828;19.574;2023-05-21T00:35:25;8.40;;;7.70;;
35056;SDS011;21241;51.828;19.574;2023-05-21T00:37:52;9.10;;;8.30;;
35056;SDS011;21241;51.828;19.574;2023-05-21T00:40:20;8.70;;;8.00;;
35056;SDS011;21241;51.828;19.574;2023-05-21T00:42:48;8.40;;;7.70;;
35056;SDS011;21241;51.828;19.574;2023-05-21T00:45:16;9.20;;;8.30;;
35056;SDS011;21241;51.828;19.574;2023-05-21T00:47:44;8.90;;;8.10;;
35056;SDS011;21241;51.828;19.574;2023-05-21T00:50:12;8.70;;;8.10;;
35056;SDS011;21241;51.828;19.574;2023-05-21T00:52:42;8.50;;;7.80;;
35056;SDS011;21241;51.828;19.574;2023-05-21T00:55:10;8.00;;;7.50;;
35056;SDS011;21241;51.828;19.574;2023-05-21T00:57:38;9.00;;;8.30;;
35056;SDS011;21241;51.828;19.574;2023-05-21T01:00:06;8.70;;;8.00;;
35056;SDS011;21241;51.828;19.574;2023-05-21T01:02:36;8.60;;;7.90;;
35056;SDS011;21241;51.828;19.574;2023-05-21T01:05:05;8.30;;;7.80;;
35056;SDS011;21241;51.828;19.574;2023-05-21T01:07:33;9.40;;;8.60;;
35056;SDS011;21241;51.828;19.574;2023-05-21T01:10:03;9.60;;;8.70;;
35056;SDS011;21241;51.828;19.574;2023-05-21T01:12:32;9.20;;;8.40;;
35056;SDS011;21241;51.828;19.574;2023-05-21T01:15:04;8.60;;;8.00;;
35056;SDS011;21241;51.828;19.574;2023-05-21T01:17:32;9.30;;;8.60;;
35056;SDS011;21241;51.828;19.574;2023-05-21T01:20:01;8.20;;;7.60;;
35056;SDS011;21241;51.828;19.574;2023-05-21T01:22:37;9.40;;;8.50;;
35056;SDS011;21241;51.828;19.574;2023-05-21T01:25:09;8.70;;;8.10;;
35056;SDS011;21241;51.828;19.574;2023-05-21T01:27:37;7.80;;;7.20;;
35056;SDS011;21241;51.828;19.574;2023-05-21T01:30:05;8.20;;;7.60;;
35056;SDS011;21241;51.828;19.574;2023-05-21T01:32:47;8.40;;;7.80;;
35056;SDS011;21241;51.828;19.574;2023-05-21T01:35:37;8.40;;;7.80;;
35056;SDS011;21241;51.828;19.574;2023-05-21T01:38:11;9.20;;;8.40;;
35056;SDS011;21241;51.828;19.574;2023-05-21T01:40:57;8.50;;;7.80;;
35056;SDS011;21241;51.828;19.574;2023-05-21T01:43:33;8.40;;;7.70;;
35056;SDS011;21241;51.828;19.574;2023-05-21T01:46:05;8.80;;;7.90;;
35056;SDS011;21241;51.828;19.574;2023-05-21T01:48:35;8.20;;;7.40;;
35056;SDS011;21241;51.828;19.574;2023-05-21T01:51:04;8.90;;;8.00;;
35056;SDS011;21241;51.828;19.574;2023-05-21T01:53:32;8.40;;;7.80;;
35056;SDS011;21241;51.828;19.574;2023-05-21T01:56:00;8.60;;;7.80;;
35056;SDS011;21241;51.828;19.574;2023-05-21T01:58:29;7.80;;;7.20;;
35056;SDS011;21241;51.828;19.574;2023-05-21T02:00:57;8.90;;;8.10;;
35056;SDS011;21241;51.828;19.574;2023-05-21T02:03:25;7.60;;;7.00;;
35056;SDS011;21241;51.828;19.574;2023-05-21T02:05:54;7.60;;;7.10;;
35056;SDS011;21241;51.828;19.574;2023-05-21T02:08:22;8.50;;;7.80;;
35056;SDS011;21241;51.828;19.574;2023-05-21T02:10:52;9.00;;;8.10;;
35056;SDS011;21241;51.828;19.574;2023-05-21T02:13:19;8.90;;;8.20;;
35056;SDS011;21241;51.828;19.574;2023-05-21T02:15:52;8.50;;;7.80;;
35056;SDS011;21241;51.828;19.574;2023-05-21T02:18:21;8.00;;;7.50;;
35056;SDS011;21241;51.828;19.574;2023-05-21T02:20:49;7.80;;;7.10;;
35056;SDS011;21241;51.828;19.574;2023-05-21T02:23:17;7.30;;;6.70;;
35056;SDS011;21241;51.828;19.574;2023-05-21T02:25:45;7.10;;;6.40;;
35056;SDS011;21241;51.828;19.574;2023-05-21T02:28:13;7.70;;;7.10;;
35056;SDS011;21241;51.828;19.574;2023-05-21T02:30:40;8.20;;;7.40;;
35056;SDS011;21241;51.828;19.574;2023-05-21T02:33:08;7.60;;;7.00;;
35056;SDS011;21241;51.828;19.574;2023-05-21T02:35:40;7.30;;;6.60;;
35056;SDS011;21241;51.828;19.574;2023-05-21T02:38:08;7.40;;;6.90;;
35056;SDS011;21241;51.828;19.574;2023-05-21T02:40:37;7.50;;;6.70;;
35056;SDS011;21241;51.828;19.574;2023-05-21T02:43:04;6.80;;;6.30;;
35056;SDS011;21241;51.828;19.574;2023-05-21T02:45:33;6.70;;;6.30;;
35056;SDS011;21241;51.828;19.574;2023-05-21T02:48:01;7.20;;;6.60;;
35056;SDS011;21241;51.828;19.574;2023-05-21T02:50:31;6.80;;;6.10;;
35056;SDS011;21241;51.828;19.574;2023-05-21T02:52:59;6.90;;;6.20;;
35056;SDS011;21241;51.828;19.574;2023-05-21T02:55:27;6.60;;;6.00;;
35056;SDS011;21241;51.828;19.574;2023-05-21T02:57:55;7.00;;;6.30;;
35056;SDS011;21241;51.828;19.574;2023-05-21T03:00:22;6.60;;;6.00;;
35056;SDS011;21241;51.828;19.574;2023-05-21T03:02:50;6.50;;;6.10;;
35056;SDS011;21241;51.828;19.574;2023-05-21T03:05:18;6.40;;;5.90;;
35056;SDS011;21241;51.828;19.574;2023-05-21T03:07:46;6.50;;;6.00;;
35056;SDS011;21241;51.828;19.574;2023-05-21T03:10:14;6.90;;;6.20;;
35056;SDS011;21241;51.828;19.574;2023-05-21T03:12:42;6.60;;;6.00;;
35056;SDS011;21241;51.828;19.574;2023-05-21T03:15:11;6.40;;;5.80;;
35056;SDS011;21241;51.828;19.574;2023-05-21T03:17:41;6.80;;;6.30;;
35056;SDS011;21241;51.828;19.574;2023-05-21T03:20:11;7.00;;;6.40;;
35056;SDS011;21241;51.828;19.574;2023-05-21T03:22:45;6.20;;;5.70;;
35056;SDS011;21241;51.828;19.574;2023-05-21T03:25:13;6.50;;;5.90;;
35056;SDS011;21241;51.828;19.574;2023-05-21T03:27:41;7.20;;;6.60;;
35056;SDS011;21241;51.828;19.574;2023-05-21T03:30:29;6.60;;;6.00;;
35056;SDS011;21241;51.828;19.574;2023-05-21T03:33:15;6.70;;;6.10;;
35056;SDS011;21241;51.828;19.574;2023-05-21T03:35:44;6.60;;;5.90;;
35056;SDS011;21241;51.828;19.574;2023-05-21T03:38:12;6.50;;;5.90;;
35056;SDS011;21241;51.828;19.574;2023-05-21T03:40:40;6.80;;;6.20;;
35056;SDS011;21241;51.828;19.574;2023-05-21T03:43:07;6.70;;;6.20;;
35056;SDS011;21241;51.828;19.574;2023-05-21T03:45:36;6.40;;;5.90;;
35056;SDS011;21241;51.828;19.574;2023-05-21T03:48:33;6.80;;;6.20;;
35056;SDS011;21241;51.828;19.574;2023-05-21T03:51:01;6.60;;;6.00;;
35056;SDS011;21241;51.828;19.574;2023-05-21T03:53:29;6.50;;;6.00;;
35056;SDS011;21241;51.828;19.574;2023-05-21T03:55:57;6.70;;;6.10;;
35056;SDS011;21241;51.828;19.574;2023-05-21T03:58:24;6.40;;;5.90;;
35056;SDS011;21241;51.828;19.574;2023-05-21T04:00:53;6.30;;;5.70;;
35056;SDS011;21241;51.828;19.574;2023-05-21T04:03:21;6.30;;;5.80;;
35056;SDS011;21241;51.828;19.574;2023-05-21T04:05:49;6.40;;;5.80;;
35056;SDS011;21241;51.828;19.574;2023-05-21T04:08:17;8.90;;;6.30;;
35056;SDS011;21241;51.828;19.574;2023-05-21T04:10:45;7.00;;;6.30;;
35056;SDS011;21241;51.828;19.574;2023-05-21T04:13:12;6.50;;;6.00;;
35056;SDS011;21241;51.828;19.574;2023-05-21T04:15:41;7.10;;;6.50;;
35056;SDS011;21241;51.828;19.574;2023-05-21T04:18:11;7.20;;;6.50;;
35056;SDS011;21241;51.828;19.574;2023-05-21T04:20:40;6.90;;;6.20;;
35056;SDS011;21241;51.828;19.574;2023-05-21T04:23:08;6.60;;;5.90;;
35056;SDS011;21241;51.828;19.574;2023-05-21T04:25:36;6.50;;;5.90;;
35056;SDS011;21241;51.828;19.574;2023-05-21T04:28:06;6.20;;;5.70;;
35056;SDS011;21241;51.828;19.574;2023-05-21T04:30:34;6.20;;;5.70;;
35056;SDS011;21241;51.828;19.574;2023-05-21T04:33:03;6.40;;;5.80;;
35056;SDS011;21241;51.828;19.574;2023-05-21T04:35:33;6.00;;;5.50;;
35056;SDS011;21241;51.828;19.574;2023-05-21T04:38:02;7.10;;;6.50;;
35056;SDS011;21241;51.828;19.574;2023-05-21T04:40:32;6.10;;;5.60;;
35056;SDS011;21241;51.828;19.574;2023-05-21T04:43:03;6.00;;;5.60;;
35056;SDS011;21241;51.828;19.574;2023-05-21T04:45:31;6.10;;;5.50;;
35056;SDS011;21241;51.828;19.574;2023-05-21T04:47:59;7.10;;;5.90;;
35056;SDS011;21241;51.828;19.574;2023-05-21T04:50:28;5.90;;;5.40;;
35056;SDS011;21241;51.828;19.574;2023-05-21T04:52:57;6.20;;;5.70;;
35056;SDS011;21241;51.828;19.574;2023-05-21T04:55:25;6.00;;;5.50;;
35056;SDS011;21241;51.828;19.574;2023-05-21T04:57:54;6.20;;;5.60;;
35056;SDS011;21241;51.828;19.574;2023-05-21T05:00:21;6.00;;;5.50;;
35056;SDS011;21241;51.828;19.574;2023-05-21T05:02:52;6.60;;;6.00;;
35056;SDS011;21241;51.828;19.574;2023-05-21T05:05:21;6.10;;;5.60;;
35056;SDS011;21241;51.828;19.574;2023-05-21T05:07:48;6.80;;;5.50;;
35056;SDS011;21241;51.828;19.574;2023-05-21T05:10:16;6.00;;;5.50;;
35056;SDS011;21241;51.828;19.574;2023-05-21T05:12:43;5.40;;;4.90;;
35056;SDS011;21241;51.828;19.574;2023-05-21T05:15:11;6.20;;;5.60;;
35056;SDS011;21241;51.828;19.574;2023-05-21T05:17:39;5.60;;;5.00;;
35056;SDS011;21241;51.828;19.574;2023-05-21T05:20:09;5.00;;;4.60;;
35056;SDS011;21241;51.828;19.574;2023-05-21T05:22:37;5.90;;;5.30;;
35056;SDS011;21241;51.828;19.574;2023-05-21T05:25:05;5.90;;;5.20;;
35056;SDS011;21241;51.828;19.574;2023-05-21T05:27:33;5.10;;;4.70;;
35056;SDS011;21241;51.828;19.574;2023-05-21T05:30:05;5.70;;;5.20;;
35056;SDS011;21241;51.828;19.574;2023-05-21T05:32:33;5.40;;;4.90;;
35056;SDS011;21241;51.828;19.574;2023-05-21T05:35:01;5.00;;;4.50;;
35056;SDS011;21241;51.828;19.574;2023-05-21T05:37:29;4.70;;;4.40;;
35056;SDS011;21241;51.828;19.574;2023-05-21T05:39:57;8.40;;;4.90;;
35056;SDS011;21241;51.828;19.574;2023-05-21T05:42:26;4.80;;;4.50;;
35056;SDS011;21241;51.828;19.574;2023-05-21T05:44:54;4.90;;;4.50;;
35056;SDS011;21241;51.828;19.574;2023-05-21T05:47:23;5.20;;;4.70;;
35056;SDS011;21241;51.828;19.574;2023-05-21T05:49:51;5.50;;;4.90;;
35056;SDS011;21241;51.828;19.574;2023-05-21T05:52:19;4.70;;;4.40;;
35056;SDS011;21241;51.828;19.574;2023-05-21T05:54:46;5.20;;;4.60;;
35056;SDS011;21241;51.828;19.574;2023-05-21T05:57:15;4.90;;;4.30;;
35056;SDS011;21241;51.828;19.574;2023-05-21T05:59:45;5.10;;;4.60;;
35056;SDS011;21241;51.828;19.574;2023-05-21T06:02:12;5.40;;;4.90;;
35056;SDS011;21241;51.828;19.574;2023-05-21T06:04:42;4.50;;;4.20;;
35056;SDS011;21241;51.828;19.574;2023-05-21T06:07:10;4.40;;;4.10;;
35056;SDS011;21241;51.828;19.574;2023-05-21T06:09:37;4.40;;;3.90;;
35056;SDS011;21241;51.828;19.574;2023-05-21T06:12:05;4.40;;;3.90;;
35056;SDS011;21241;51.828;19.574;2023-05-21T06:14:33;4.50;;;4.10;;
35056;SDS011;21241;51.828;19.574;2023-05-21T06:17:01;4.70;;;4.30;;
35056;SDS011;21241;51.828;19.574;2023-05-21T06:19:29;4.20;;;3.80;;
35056;SDS011;21241;51.828;19.574;2023-05-21T06:21:57;4.60;;;4.20;;
35056;SDS011;21241;51.828;19.574;2023-05-21T06:24:25;4.30;;;3.90;;
35056;SDS011;21241;51.828;19.574;2023-05-21T06:26:53;4.40;;;3.60;;
35056;SDS011;21241;51.828;19.574;2023-05-21T06:29:21;4.40;;;4.00;;
35056;SDS011;21241;51.828;19.574;2023-05-21T06:31:49;4.70;;;4.00;;
35056;SDS011;21241;51.828;19.574;2023-05-21T06:34:17;4.80;;;3.60;;
35056;SDS011;21241;51.828;19.574;2023-05-21T06:36:45;4.60;;;4.00;;
35056;SDS011;21241;51.828;19.574;2023-05-21T06:39:13;5.40;;;3.60;;
35056;SDS011;21241;51.828;19.574;2023-05-21T06:41:41;4.50;;;3.50;;
35056;SDS011;21241;51.828;19.574;2023-05-21T06:44:28;4.50;;;4.20;;
35056;SDS011;21241;51.828;19.574;2023-05-21T06:47:28;3.90;;;3.50;;
35056;SDS011;21241;51.828;19.574;2023-05-21T06:49:57;5.40;;;3.60;;
35056;SDS011;21241;51.828;19.574;2023-05-21T06:52:25;3.90;;;3.50;;
35056;SDS011;21241;51.828;19.574;2023-05-21T06:54:54;4.10;;;3.70;;
35056;SDS011;21241;51.828;19.574;2023-05-21T06:57:22;4.80;;;4.00;;
35056;SDS011;21241;51.828;19.574;2023-05-21T06:59:50;4.30;;;3.90;;
35056;SDS011;21241;51.828;19.574;2023-05-21T07:02:17;5.20;;;3.80;;
35056;SDS011;21241;51.828;19.574;2023-05-21T07:04:46;4.10;;;3.80;;
35056;SDS011;21241;51.828;19.574;2023-05-21T07:07:14;3.90;;;3.60;;
35056;SDS011;21241;51.828;19.574;2023-05-21T07:09:41;4.10;;;3.70;;
35056;SDS011;21241;51.828;19.574;2023-05-21T07:12:09;4.40;;;4.00;;
35056;SDS011;21241;51.828;19.574;2023-05-21T07:14:37;5.30;;;3.70;;
35056;SDS011;21241;51.828;19.574;2023-05-21T07:17:05;5.00;;;3.60;;
35056;SDS011;21241;51.828;19.574;2023-05-21T07:19:33;4.30;;;3.30;;
35056;SDS011;21241;51.828;19.574;2023-05-21T07:22:01;4.00;;;3.70;;
35056;SDS011;21241;51.828;19.574;2023-05-21T07:24:29;4.60;;;3.60;;
35056;SDS011;21241;51.828;19.574;2023-05-21T07:26:57;4.60;;;3.70;;
35056;SDS011;21241;51.828;19.574;2023-05-21T07:29:24;4.50;;;3.70;;
35056;SDS011;21241;51.828;19.574;2023-05-21T07:31:53;3.80;;;3.40;;
35056;SDS011;21241;51.828;19.574;2023-05-21T07:34:21;4.50;;;3.30;;
35056;SDS011;21241;51.828;19.574;2023-05-21T07:36:48;4.10;;;3.30;;
35056;SDS011;21241;51.828;19.574;2023-05-21T07:39:17;3.60;;;3.00;;
35056;SDS011;21241;51.828;19.574;2023-05-21T07:41:45;3.70;;;3.40;;
35056;SDS011;21241;51.828;19.574;2023-05-21T07:44:12;3.20;;;3.00;;
35056;SDS011;21241;51.828;19.574;2023-05-21T07:46:41;3.20;;;3.00;;
35056;SDS011;21241;51.828;19.574;2023-05-21T07:49:10;3.80;;;3.30;;
35056;SDS011;21241;51.828;19.574;2023-05-21T07:51:43;4.30;;;3.30;;
35056;SDS011;21241;51.828;19.574;2023-05-21T07:54:11;3.60;;;3.30;;
35056;SDS011;21241;51.828;19.574;2023-05-21T07:56:40;3.60;;;3.10;;
35056;SDS011;21241;51.828;19.574;2023-05-21T07:59:09;5.40;;;3.50;;
35056;SDS011;21241;51.828;19.574;2023-05-21T08:01:40;3.20;;;3.00;;
35056;SDS011;21241;51.828;19.574;2023-05-21T08:04:09;3.80;;;3.50;;
35056;SDS011;21241;51.828;19.574;2023-05-21T08:06:37;3.60;;;3.30;;
35056;SDS011;21241;51.828;19.574;2023-05-21T08:09:05;3.80;;;3.30;;
35056;SDS011;21241;51.828;19.574;2023-05-21T08:11:33;4.10;;;2.90;;
35056;SDS011;21241;51.828;19.574;2023-05-21T08:14:01;3.70;;;3.20;;
35056;SDS011;21241;51.828;19.574;2023-05-21T08:16:29;3.50;;;3.20;;
35056;SDS011;21241;51.828;19.574;2023-05-21T08:18:57;3.40;;;3.10;;
35056;SDS011;21241;51.828;19.574;2023-05-21T08:21:25;3.90;;;3.50;;
35056;SDS011;21241;51.828;19.574;2023-05-21T08:23:53;3.30;;;3.10;;
35056;SDS011;21241;51.828;19.574;2023-05-21T08:26:21;3.90;;;3.00;;
35056;SDS011;21241;51.828;19.574;2023-05-21T08:28:48;4.50;;;2.80;;
35056;SDS011;21241;51.828;19.574;2023-05-21T08:31:17;3.30;;;3.10;;
35056;SDS011;21241;51.828;19.574;2023-05-21T08:33:49;3.40;;;3.20;;
35056;SDS011;21241;51.828;19.574;2023-05-21T08:36:19;3.20;;;2.90;;
35056;SDS011;21241;51.828;19.574;2023-05-21T08:38:53;3.30;;;3.00;;
35056;SDS011;21241;51.828;19.574;2023-05-21T08:41:25;3.50;;;2.70;;
35056;SDS011;21241;51.828;19.574;2023-05-21T08:43:54;3.80;;;3.40;;
35056;SDS011;21241;51.828;19.574;2023-05-21T08:46:25;2.70;;;2.50;;
35056;SDS011;21241;51.828;19.574;2023-05-21T08:48:56;3.50;;;2.50;;
35056;SDS011;21241;51.828;19.574;2023-05-21T08:51:25;3.30;;;2.90;;
35056;SDS011;21241;51.828;19.574;2023-05-21T08:53:53;4.20;;;2.70;;
35056;SDS011;21241;51.828;19.574;2023-05-21T08:56:22;3.30;;;2.70;;
35056;SDS011;21241;51.828;19.574;2023-05-21T08:58:56;3.10;;;2.80;;
35056;SDS011;21241;51.828;19.574;2023-05-21T09:01:27;3.00;;;2.70;;
35056;SDS011;21241;51.828;19.574;2023-05-21T09:04:22;3.00;;;2.70;;
35056;SDS011;21241;51.828;19.574;2023-05-21T09:06:53;3.40;;;3.10;;
35056;SDS011;21241;51.828;19.574;2023-05-21T09:09:37;3.40;;;3.10;;
35056;SDS011;21241;51.828;19.574;2023-05-21T09:12:08;2.90;;;2.40;;
35056;SDS011;21241;51.828;19.574;2023-05-21T09:14:36;3.20;;;2.90;;
35056;SDS011;21241;51.828;19.574;2023-05-21T09:17:13;4.70;;;3.10;;
35056;SDS011;21241;51.828;19.574;2023-05-21T09:22:48;3.00;;;2.70;;
35056;SDS011;21241;51.828;19.574;2023-05-21T09:25:19;3.60;;;2.70;;
35056;SDS011;21241;51.828;19.574;2023-05-21T09:27:48;4.20;;;2.80;;
35056;SDS011;21241;51.828;19.574;2023-05-21T09:30:18;3.00;;;2.80;;
35056;SDS011;21241;51.828;19.574;2023-05-21T09:32:52;2.70;;;2.50;;
35056;SDS011;21241;51.828;19.574;2023-05-21T09:35:24;3.50;;;2.80;;
35056;SDS011;21241;51.828;19.574;2023-05-21T09:37:52;2.40;;;2.10;;
35056;SDS011;21241;51.828;19.574;2023-05-21T09:40:20;3.50;;;2.50;;
35056;SDS011;21241;51.828;19.574;2023-05-21T09:42:54;2.70;;;2.50;;
35056;SDS011;21241;51.828;19.574;2023-05-21T09:45:25;2.80;;;2.60;;
35056;SDS011;21241;51.828;19.574;2023-05-21T09:47:55;2.80;;;2.60;;
35056;SDS011;21241;51.828;19.574;2023-05-21T09:50:25;2.90;;;2.70;;
35056;SDS011;21241;51.828;19.574;2023-05-21T09:52:54;2.80;;;2.60;;
35056;SDS011;21241;51.828;19.574;2023-05-21T09:55:23;2.80;;;2.60;;
35056;SDS011;21241;51.828;19.574;2023-05-21T09:57:51;3.30;;;2.60;;
35056;SDS011;21241;51.828;19.574;2023-05-21T10:02:55;3.00;;;2.70;;
35056;SDS011;21241;51.828;19.574;2023-05-21T10:05:24;2.90;;;2.70;;
35056;SDS011;21241;51.828;19.574;2023-05-21T10:10:30;3.10;;;2.80;;
35056;SDS011;21241;51.828;19.574;2023-05-21T10:13:05;2.70;;;2.40;;
35056;SDS011;21241;51.828;19.574;2023-05-21T10:15:37;2.90;;;2.60;;
35056;SDS011;21241;51.828;19.574;2023-05-21T10:18:05;3.30;;;2.60;;
35056;SDS011;21241;51.828;19.574;2023-05-21T10:20:35;3.00;;;2.80;;
35056;SDS011;21241;51.828;19.574;2023-05-21T10:23:04;3.30;;;2.70;;
35056;SDS011;21241;51.828;19.574;2023-05-21T10:25:32;3.00;;;2.80;;
35056;SDS011;21241;51.828;19.574;2023-05-21T10:28:01;2.70;;;2.50;;
35056;SDS011;21241;51.828;19.574;2023-05-21T10:30:29;3.10;;;2.90;;
35056;SDS011;21241;51.828;19.574;2023-05-21T10:32:58;4.60;;;3.30;;
35056;SDS011;21241;51.828;19.574;2023-05-21T10:35:26;2.90;;;2.70;;
35056;SDS011;21241;51.828;19.574;2023-05-21T10:37:55;3.30;;;2.80;;
35056;SDS011;21241;51.828;19.574;2023-05-21T10:40:23;3.20;;;2.90;;
35056;SDS011;21241;51.828;19.574;2023-05-21T10:51:17;3.80;;;3.20;;
35056;SDS011;21241;51.828;19.574;2023-05-21T10:54:07;2.90;;;2.70;;
35056;SDS011;21241;51.828;19.574;2023-05-21T11:01:50;2.90;;;2.70;;
35056;SDS011;21241;51.828;19.574;2023-05-21T11:04:25;3.20;;;2.90;;
35056;SDS011;21241;51.828;19.574;2023-05-21T11:06:54;2.80;;;2.60;;
35056;SDS011;21241;51.828;19.574;2023-05-21T11:09:22;3.80;;;2.50;;
35056;SDS011;21241;51.828;19.574;2023-05-21T11:11:51;2.90;;;2.70;;
35056;SDS011;21241;51.828;19.574;2023-05-21T11:14:27;4.70;;;2.50;;
35056;SDS011;21241;51.828;19.574;2023-05-21T11:19:44;3.70;;;3.10;;
35056;SDS011;21241;51.828;19.574;2023-05-21T11:22:21;3.00;;;2.60;;
35056;SDS011;21241;51.828;19.574;2023-05-21T11:24:50;3.40;;;3.10;;
35056;SDS011;21241;51.828;19.574;2023-05-21T11:30:11;3.00;;;2.80;;
35056;SDS011;21241;51.828;19.574;2023-05-21T11:35:35;3.40;;;3.00;;
35056;SDS011;21241;51.828;19.574;2023-05-21T11:38:05;3.10;;;2.90;;
35056;SDS011;21241;51.828;19.574;2023-05-21T11:40:35;5.00;;;2.70;;
35056;SDS011;21241;51.828;19.574;2023-05-21T11:43:03;3.20;;;2.90;;
35056;SDS011;21241;51.828;19.574;2023-05-21T11:45:31;3.20;;;3.00;;
35056;SDS011;21241;51.828;19.574;2023-05-21T11:47:59;2.90;;;2.70;;
35056;SDS011;21241;51.828;19.574;2023-05-21T11:50:27;3.00;;;2.70;;
35056;SDS011;21241;51.828;19.574;2023-05-21T11:52:57;4.40;;;3.30;;
35056;SDS011;21241;51.828;19.574;2023-05-21T11:55:26;2.90;;;2.70;;
35056;SDS011;21241;51.828;19.574;2023-05-21T11:57:54;3.00;;;2.80;;
35056;SDS011;21241;51.828;19.574;2023-05-21T12:00:23;3.50;;;3.20;;
35056;SDS011;21241;51.828;19.574;2023-05-21T12:02:51;4.20;;;3.20;;
35056;SDS011;21241;51.828;19.574;2023-05-21T12:05:20;3.00;;;2.80;;
35056;SDS011;21241;51.828;19.574;2023-05-21T12:07:48;3.20;;;2.90;;
35056;SDS011;21241;51.828;19.574;2023-05-21T12:10:20;3.40;;;2.60;;
35056;SDS011;21241;51.828;19.574;2023-05-21T12:12:49;3.40;;;3.10;;
35056;SDS011;21241;51.828;19.574;2023-05-21T12:15:24;2.90;;;2.60;;
35056;SDS011;21241;51.828;19.574;2023-05-21T12:17:53;3.10;;;2.90;;
35056;SDS011;21241;51.828;19.574;2023-05-21T12:20:21;3.20;;;2.90;;
35056;SDS011;21241;51.828;19.574;2023-05-21T12:22:49;4.00;;;2.90;;
35056;SDS011;21241;51.828;19.574;2023-05-21T12:25:18;3.50;;;2.70;;
35056;SDS011;21241;51.828;19.574;2023-05-21T12:27:48;3.80;;;2.80;;
35056;SDS011;21241;51.828;19.574;2023-05-21T12:30:24;3.60;;;3.20;;
35056;SDS011;21241;51.828;19.574;2023-05-21T12:32:52;4.00;;;2.70;;
35056;SDS011;21241;51.828;19.574;2023-05-21T12:35:24;3.20;;;3.00;;
35056;SDS011;21241;51.828;19.574;2023-05-21T12:37:52;2.80;;;2.60;;
35056;SDS011;21241;51.828;19.574;2023-05-21T12:40:20;3.20;;;2.70;;
35056;SDS011;21241;51.828;19.574;2023-05-21T12:42:48;4.00;;;2.70;;
35056;SDS011;21241;51.828;19.574;2023-05-21T12:45:18;2.90;;;2.70;;
35056;SDS011;21241;51.828;19.574;2023-05-21T12:47:47;3.20;;;2.90;;
35056;SDS011;21241;51.828;19.574;2023-05-21T12:50:18;3.30;;;3.00;;
35056;SDS011;21241;51.828;19.574;2023-05-21T12:52:46;3.40;;;3.10;;
35056;SDS011;21241;51.828;19.574;2023-05-21T12:55:14;3.50;;;3.20;;
35056;SDS011;21241;51.828;19.574;2023-05-21T12:57:43;3.50;;;3.00;;
35056;SDS011;21241;51.828;19.574;2023-05-21T13:00:11;3.80;;;3.50;;
35056;SDS011;21241;51.828;19.574;2023-05-21T13:02:40;3.00;;;2.80;;
35056;SDS011;21241;51.828;19.574;2023-05-21T13:05:14;4.00;;;3.50;;
35056;SDS011;21241;51.828;19.574;2023-05-21T13:07:46;3.10;;;2.90;;
35056;SDS011;21241;51.828;19.574;2023-05-21T13:10:14;3.50;;;3.10;;
35056;SDS011;21241;51.828;19.574;2023-05-21T13:12:43;2.90;;;2.70;;
35056;SDS011;21241;51.828;19.574;2023-05-21T13:15:11;3.20;;;2.90;;
35056;SDS011;21241;51.828;19.574;2023-05-21T13:17:39;3.80;;;2.70;;
35056;SDS011;21241;51.828;19.574;2023-05-21T13:20:11;3.30;;;3.00;;
35056;SDS011;21241;51.828;19.574;2023-05-21T13:22:43;3.20;;;2.90;;
35056;SDS011;21241;51.828;19.574;2023-05-21T13:25:16;3.60;;;3.30;;
35056;SDS011;21241;51.828;19.574;2023-05-21T13:27:47;3.00;;;2.80;;
35056;SDS011;21241;51.828;19.574;2023-05-21T13:30:15;3.50;;;3.30;;
35056;SDS011;21241;51.828;19.574;2023-05-21T13:32:44;3.00;;;2.80;;
35056;SDS011;21241;51.828;19.574;2023-05-21T13:35:12;3.50;;;2.90;;
35056;SDS011;21241;51.828;19.574;2023-05-21T13:37:43;3.30;;;3.00;;
35056;SDS011;21241;51.828;19.574;2023-05-21T13:40:12;3.60;;;3.20;;
35056;SDS011;21241;51.828;19.574;2023-05-21T13:42:42;3.50;;;3.20;;
35056;SDS011;21241;51.828;19.574;2023-05-21T13:45:13;3.40;;;3.00;;
35056;SDS011;21241;51.828;19.574;2023-05-21T13:47:45;3.50;;;3.20;;
35056;SDS011;21241;51.828;19.574;2023-05-21T13:50:14;3.60;;;3.00;;
35056;SDS011;21241;51.828;19.574;2023-05-21T13:52:42;3.30;;;3.00;;
35056;SDS011;21241;51.828;19.574;2023-05-21T13:55:10;3.90;;;3.30;;
35056;SDS011;21241;51.828;19.574;2023-05-21T13:57:38;3.70;;;3.40;;
35056;SDS011;21241;51.828;19.574;2023-05-21T14:00:07;4.10;;;3.20;;
35056;SDS011;21241;51.828;19.574;2023-05-21T14:02:40;3.40;;;3.10;;
35056;SDS011;21241;51.828;19.574;2023-05-21T14:05:09;3.50;;;3.20;;
35056;SDS011;21241;51.828;19.574;2023-05-21T14:07:37;3.60;;;3.10;;
35056;SDS011;21241;51.828;19.574;2023-05-21T14:10:06;5.60;;;4.00;;
35056;SDS011;21241;51.828;19.574;2023-05-21T14:12:34;3.70;;;3.40;;
35056;SDS011;21241;51.828;19.574;2023-05-21T14:15:03;3.30;;;3.00;;
35056;SDS011;21241;51.828;19.574;2023-05-21T14:17:31;3.40;;;3.00;;
35056;SDS011;21241;51.828;19.574;2023-05-21T14:19:58;3.50;;;3.20;;
35056;SDS011;21241;51.828;19.574;2023-05-21T14:22:27;3.40;;;3.20;;
35056;SDS011;21241;51.828;19.574;2023-05-21T14:24:54;3.50;;;3.00;;
35056;SDS011;21241;51.828;19.574;2023-05-21T14:27:22;3.00;;;2.80;;
35056;SDS011;21241;51.828;19.574;2023-05-21T14:29:50;5.50;;;3.60;;
35056;SDS011;21241;51.828;19.574;2023-05-21T14:32:18;3.40;;;3.10;;
35056;SDS011;21241;51.828;19.574;2023-05-21T14:34:46;3.40;;;3.20;;
35056;SDS011;21241;51.828;19.574;2023-05-21T14:37:13;3.60;;;3.10;;
35056;SDS011;21241;51.828;19.574;2023-05-21T14:39:41;3.00;;;2.70;;
35056;SDS011;21241;51.828;19.574;2023-05-21T14:42:09;3.20;;;3.00;;
35056;SDS011;21241;51.828;19.574;2023-05-21T14:44:36;3.20;;;3.00;;
35056;SDS011;21241;51.828;19.574;2023-05-21T14:47:04;3.50;;;2.70;;
35056;SDS011;21241;51.828;19.574;2023-05-21T14:49:32;3.80;;;3.10;;
35056;SDS011;21241;51.828;19.574;2023-05-21T14:51:59;4.20;;;2.80;;
35056;SDS011;21241;51.828;19.574;2023-05-21T14:54:27;3.30;;;2.90;;
35056;SDS011;21241;51.828;19.574;2023-05-21T14:56:55;3.80;;;3.20;;
35056;SDS011;21241;51.828;19.574;2023-05-21T14:59:22;3.10;;;2.80;;
35056;SDS011;21241;51.828;19.574;2023-05-21T15:01:50;3.30;;;3.10;;
35056;SDS011;21241;51.828;19.574;2023-05-21T15:04:18;3.80;;;3.40;;
35056;SDS011;21241;51.828;19.574;2023-05-21T15:06:46;3.20;;;2.90;;
35056;SDS011;21241;51.828;19.574;2023-05-21T15:09:14;4.10;;;3.00;;
35056;SDS011;21241;51.828;19.574;2023-05-21T15:11:42;3.80;;;3.40;;
35056;SDS011;21241;51.828;19.574;2023-05-21T15:14:12;3.20;;;2.90;;
35056;SDS011;21241;51.828;19.574;2023-05-21T15:16:39;4.20;;;3.10;;